Time;durP1;ratioP1;P1;durP2;ratioP2;P2;SDS_P1;SDS_P2;PMS_P1;PMS_P2;Temp;Humidity;BMP_temperature;BMP_pressure;BME280_temperature;BME280_humidity;BME280_pressure;Samples;Min_cycle;Max_cycle;Signal;HPM_P1;HPM_P2
2022/12/10 00:01:34;;;;;;;19.60;7.27;;;7.50;99.90;;;;;;4144578;28;20041;-64
2022/12/10 00:03:36;;;;;;;16.83;7.93;;;7.60;99.90;;;;;;4143340;28;20437;-64
2022/12/10 00:05:37;;;;;;;15.13;7.43;;;7.60;99.90;;;;;;4145925;28;20030;-63
2022/12/10 00:07:38;;;;;;;16.00;7.33;;;7.60;99.90;;;;;;4143777;28;20482;-64
2022/12/10 00:09:39;;;;;;;18.77;8.80;;;7.60;99.90;;;;;;4154200;28;20037;-62
2022/12/10 00:11:41;;;;;;;15.67;7.43;;;7.70;99.90;;;;;;4159902;28;20038;-64
2022/12/10 00:13:43;;;;;;;19.23;8.30;;;7.70;99.90;;;;;;4160601;28;20041;-63
2022/12/10 00:15:44;;;;;;;16.77;7.67;;;7.80;99.90;;;;;;4159639;28;20030;-67
2022/12/10 00:17:45;;;;;;;17.53;7.50;;;7.80;99.90;;;;;;4160840;28;20025;-68
2022/12/10 00:19:46;;;;;;;18.10;7.93;;;7.90;99.90;;;;;;4160324;28;20548;-62
2022/12/10 00:21:47;;;;;;;16.80;6.97;;;7.90;99.90;;;;;;4146589;28;20053;-66
2022/12/10 00:23:48;;;;;;;12.67;7.90;;;8.00;99.90;;;;;;4144570;28;20437;-63
2022/12/10 00:25:50;;;;;;;18.00;5.57;;;8.00;99.90;;;;;;4147909;28;20067;-68
2022/12/10 00:27:51;;;;;;;17.50;7.43;;;8.10;99.90;;;;;;4160670;28;20088;-69
2022/12/10 00:29:52;;;;;;;13.13;5.77;;;8.20;99.90;;;;;;4146675;28;20042;-64
2022/12/10 00:31:53;;;;;;;13.07;6.47;;;8.30;99.90;;;;;;4147936;28;20179;-68
2022/12/10 00:33:56;;;;;;;13.40;6.30;;;8.30;99.90;;;;;;4146674;28;20060;-66
2022/12/10 00:36:08;;;;;;;17.13;7.17;;;8.30;99.90;;;;;;4148113;28;20046;-67
2022/12/10 00:38:09;;;;;;;15.57;6.87;;;8.20;99.90;;;;;;4146030;28;20109;-62
2022/12/10 00:40:11;;;;;;;12.87;6.40;;;8.20;99.90;;;;;;4150049;28;20037;-62
2022/12/10 00:42:12;;;;;;;16.50;7.53;;;8.10;99.90;;;;;;4153634;28;20383;-63
2022/12/10 00:44:14;;;;;;;18.50;7.50;;;8.10;99.90;;;;;;4155390;28;20037;-68
2022/12/10 00:46:17;;;;;;;20.53;6.80;;;8.00;99.90;;;;;;4162367;28;20429;-62
2022/12/10 00:48:18;;;;;;;13.33;6.23;;;8.00;99.90;;;;;;4163920;28;20021;-64
2022/12/10 00:50:19;;;;;;;13.50;6.53;;;8.00;99.90;;;;;;4162957;28;20076;-67
2022/12/10 00:52:20;;;;;;;14.70;6.43;;;8.00;99.90;;;;;;4162550;28;20045;-68
2022/12/10 00:54:21;;;;;;;12.33;6.30;;;8.00;99.90;;;;;;4162195;28;20045;-62
2022/12/10 00:56:25;;;;;;;15.40;6.30;;;8.10;99.90;;;;;;4161726;28;20460;-69
2022/12/10 00:58:29;;;;;;;13.30;6.27;;;8.00;99.90;;;;;;4163441;28;20029;-65
2022/12/10 01:00:30;;;;;;;12.13;6.20;;;8.10;99.90;;;;;;4161566;28;20416;-68
2022/12/10 01:02:31;;;;;;;12.43;6.47;;;8.00;99.90;;;;;;4147292;28;20398;-61
2022/12/10 01:04:32;;;;;;;10.77;6.33;;;8.00;99.90;;;;;;4146494;28;20068;-68
2022/12/10 01:06:36;;;;;;;13.13;6.70;;;8.00;99.90;;;;;;4149842;28;20038;-68
2022/12/10 01:08:37;;;;;;;26.53;7.37;;;7.90;99.90;;;;;;4145934;28;20096;-63
2022/12/10 01:10:39;;;;;;;12.80;6.53;;;8.00;99.90;;;;;;4147301;28;20096;-64
2022/12/10 01:12:40;;;;;;;15.70;7.63;;;7.90;99.90;;;;;;4146600;28;20364;-63
2022/12/10 01:14:41;;;;;;;20.33;7.73;;;8.00;99.90;;;;;;4147318;28;20112;-62
2022/12/10 01:16:42;;;;;;;13.13;7.10;;;7.90;99.90;;;;;;4146079;28;20034;-65
2022/12/10 01:18:43;;;;;;;14.57;7.17;;;7.90;99.90;;;;;;4147160;28;20738;-63
2022/12/10 01:20:44;;;;;;;18.23;7.70;;;7.90;99.90;;;;;;4146106;28;20029;-63
2022/12/10 01:22:45;;;;;;;16.83;7.77;;;8.00;99.90;;;;;;4146579;28;20081;-63
2022/12/10 01:24:46;;;;;;;17.57;6.87;;;8.00;99.90;;;;;;4146292;28;20076;-63
2022/12/10 01:26:48;;;;;;;20.10;7.50;;;8.00;99.90;;;;;;4146188;28;20038;-62
2022/12/10 01:28:50;;;;;;;17.23;8.10;;;8.00;99.90;;;;;;4146578;28;20072;-63
2022/12/10 01:30:51;;;;;;;18.97;7.73;;;8.00;99.90;;;;;;4146453;28;20038;-65
2022/12/10 01:32:52;;;;;;;12.30;6.47;;;8.00;99.90;;;;;;4149587;28;20445;-63
2022/12/10 01:34:53;;;;;;;14.47;6.70;;;8.00;99.90;;;;;;4146123;28;20116;-64
2022/12/10 01:36:54;;;;;;;13.97;6.67;;;8.00;99.90;;;;;;4146625;28;20518;-63
2022/12/10 01:38:56;;;;;;;17.57;8.37;;;8.10;99.90;;;;;;4145713;28;20433;-64
2022/12/10 01:40:58;;;;;;;17.20;7.03;;;8.10;99.90;;;;;;4146346;28;20454;-63
2022/12/10 01:42:59;;;;;;;14.93;6.67;;;8.10;99.90;;;;;;4145563;28;20107;-64
2022/12/10 01:45:05;;;;;;;13.83;7.00;;;8.20;99.90;;;;;;4148761;28;20038;-63
2022/12/10 01:47:06;;;;;;;16.90;6.27;;;8.20;99.90;;;;;;4159456;28;20045;-65
2022/12/10 01:49:10;;;;;;;16.90;6.90;;;8.20;99.90;;;;;;4163078;28;20095;-64
2022/12/10 01:51:12;;;;;;;12.10;6.33;;;8.30;99.90;;;;;;4154898;28;20050;-64
2022/12/10 01:53:14;;;;;;;16.90;6.37;;;8.30;99.90;;;;;;4145879;28;20041;-64
2022/12/10 01:55:49;;;;;;;16.07;6.63;;;8.30;99.90;;;;;;4146596;28;21073;-63
2022/12/10 01:57:51;;;;;;;14.63;6.73;;;8.40;99.90;;;;;;4146693;28;20042;-64
2022/12/10 01:59:59;;;;;;;17.47;6.53;;;8.40;99.90;;;;;;4145355;28;20107;-62
2022/12/10 02:02:06;;;;;;;14.07;6.90;;;8.50;99.90;;;;;;4155504;28;20083;-61
2022/12/10 02:04:16;;;;;;;15.77;7.17;;;8.50;99.90;;;;;;4161636;28;20026;-63
2022/12/10 02:06:31;;;;;;;21.70;7.03;;;8.50;99.90;;;;;;4152570;28;20083;-64
2022/12/10 02:08:48;;;;;;;13.67;6.63;;;8.40;99.90;;;;;;4161482;28;20412;-64
2022/12/10 02:11:16;;;;;;;19.10;9.23;;;8.30;99.90;;;;;;4162280;28;20079;-63
2022/12/10 02:13:36;;;;;;;12.83;6.73;;;8.30;99.90;;;;;;4161133;28;20033;-63
2022/12/10 02:15:52;;;;;;;13.43;6.65;;;8.20;99.90;;;;;;4162266;28;20037;-62
2022/12/10 02:18:02;;;;;;;16.97;8.03;;;8.30;99.90;;;;;;4159243;28;20115;-62
2022/12/10 02:20:09;;;;;;;14.82;7.20;;;8.30;99.90;;;;;;4162151;28;20103;-63
2022/12/10 02:22:12;;;;;;;13.90;6.60;;;8.20;99.90;;;;;;4160771;28;20107;-63
2022/12/10 02:24:23;;;;;;;14.03;6.03;;;8.30;99.90;;;;;;4162172;28;20049;-65
2022/12/10 02:26:50;;;;;;;13.27;6.68;;;8.30;99.90;;;;;;4161383;28;20075;-63
2022/12/10 02:29:13;;;;;;;12.60;4.87;;;8.40;99.90;;;;;;4161910;28;20099;-65
2022/12/10 02:31:19;;;;;;;11.53;5.03;;;8.60;99.90;;;;;;4159467;28;20103;-65
2022/12/10 02:33:22;;;;;;;8.90;4.47;;;8.70;99.90;;;;;;4161926;28;20041;-62
2022/12/10 02:35:27;;;;;;;11.00;4.77;;;8.80;99.90;;;;;;4161339;28;20050;-64
2022/12/10 02:37:33;;;;;;;11.27;4.90;;;8.90;99.90;;;;;;4161801;28;20053;-66
2022/12/10 02:39:39;;;;;;;11.37;5.03;;;8.90;99.90;;;;;;4160405;28;20030;-65
2022/12/10 02:41:48;;;;;;;13.57;5.07;;;8.90;99.90;;;;;;4161712;28;20033;-65
2022/12/10 02:43:52;;;;;;;12.60;4.33;;;9.00;99.90;;;;;;4148564;28;20033;-65
2022/12/10 02:45:55;;;;;;;9.30;3.90;;;9.10;99.90;;;;;;4146794;28;20462;-64
2022/12/10 02:47:59;;;;;;;11.10;4.20;;;9.20;99.90;;;;;;4146342;28;20046;-64
2022/12/10 02:50:01;;;;;;;7.37;4.00;;;9.30;99.90;;;;;;4146418;28;20100;-64
2022/12/10 02:52:28;;;;;;;10.20;3.70;;;9.40;99.90;;;;;;4144141;28;20490;-66
2022/12/10 02:54:40;;;;;;;9.23;4.10;;;9.40;99.90;;;;;;4142509;28;20536;-62
2022/12/10 02:56:52;;;;;;;10.53;4.80;;;9.50;99.90;;;;;;4147390;28;20096;-65
2022/12/10 02:59:27;;;;;;;10.33;5.30;;;9.40;99.90;;;;;;4145199;28;20038;-64
2022/12/10 03:01:49;;;;;;;14.37;5.17;;;9.30;99.90;;;;;;4144073;28;20667;-65
2022/12/10 03:03:59;;;;;;;15.47;5.20;;;9.20;99.90;;;;;;4145291;28;20032;-63
2022/12/10 03:06:14;;;;;;;10.40;5.45;;;9.20;99.90;;;;;;4145022;28;20116;-64
2022/12/10 03:08:33;;;;;;;13.37;5.30;;;9.10;99.90;;;;;;4145078;28;20038;-63
2022/12/10 03:10:46;;;;;;;9.60;4.90;;;9.10;99.90;;;;;;4144532;28;20046;-68
2022/12/10 03:12:52;;;;;;;10.07;5.43;;;9.10;99.90;;;;;;4144825;28;20026;-63
2022/12/10 03:14:58;;;;;;;11.13;5.53;;;9.00;99.90;;;;;;4144437;28;20038;-64
2022/12/10 03:17:01;;;;;;;12.33;5.10;;;9.00;99.90;;;;;;4149746;28;20111;-66
2022/12/10 03:19:07;;;;;;;14.57;5.40;;;9.00;99.90;;;;;;4160869;28;20033;-63
2022/12/10 03:21:09;;;;;;;11.17;4.53;;;9.00;99.90;;;;;;4161011;28;20037;-68
2022/12/10 03:23:15;;;;;;;9.80;4.30;;;9.00;99.90;;;;;;4160429;28;20025;-68
2022/12/10 03:25:22;;;;;;;14.17;4.90;;;9.00;99.90;;;;;;4160986;28;20551;-63
2022/12/10 03:27:23;;;;;;;13.47;5.90;;;9.10;99.90;;;;;;4159826;28;20045;-66
2022/12/10 03:29:31;;;;;;;14.13;6.20;;;9.10;99.90;;;;;;4161488;28;20029;-62
2022/12/10 03:31:34;;;;;;;14.57;5.47;;;9.10;99.90;;;;;;4128054;28;20557;-63
2022/12/10 03:33:36;;;;;;;18.03;7.23;;;9.10;99.90;;;;;;4148591;28;20448;-64
2022/12/10 03:35:38;;;;;;;14.50;6.73;;;9.00;99.90;;;;;;4150039;28;20501;-65
2022/12/10 03:37:40;;;;;;;12.60;5.93;;;9.00;99.90;;;;;;4155520;28;20049;-68
2022/12/10 03:39:42;;;;;;;14.63;6.13;;;8.90;99.90;;;;;;4159249;28;20041;-67
2022/12/10 03:41:43;;;;;;;14.57;6.73;;;8.90;99.90;;;;;;4161599;28;20033;-62
2022/12/10 03:43:55;;;;;;;10.87;4.77;;;9.00;99.90;;;;;;4160451;28;20396;-66
2022/12/10 03:45:57;;;;;;;9.87;3.90;;;9.00;99.90;;;;;;4161285;28;20049;-65
2022/12/10 03:47:58;;;;;;;9.63;3.53;;;9.00;99.90;;;;;;4160316;28;20621;-66
2022/12/10 03:49:59;;;;;;;6.83;3.97;;;9.40;99.90;;;;;;4158021;28;20792;-67
2022/12/10 03:52:00;;;;;;;8.90;4.13;;;9.50;99.90;;;;;;4156649;28;20482;-63
2022/12/10 03:54:01;;;;;;;11.13;4.70;;;9.60;99.90;;;;;;4160375;28;20378;-64
2022/12/10 03:56:02;;;;;;;7.97;3.93;;;9.60;99.90;;;;;;4159089;28;20053;-63
2022/12/10 03:58:03;;;;;;;8.73;5.00;;;9.50;99.90;;;;;;4160124;28;20119;-65
2022/12/10 04:00:06;;;;;;;10.57;4.97;;;9.40;99.90;;;;;;4161098;28;20060;-65
2022/12/10 04:02:07;;;;;;;9.07;4.40;;;9.30;99.90;;;;;;4158732;28;20088;-62
2022/12/10 04:04:09;;;;;;;8.37;4.40;;;9.30;99.90;;;;;;4146736;28;20120;-67
2022/12/10 04:06:16;;;;;;;13.03;5.67;;;9.20;99.90;;;;;;4152959;28;20091;-62
2022/12/10 04:08:17;;;;;;;7.47;2.90;;;9.10;99.90;;;;;;4163957;28;20056;-64
2022/12/10 04:10:18;;;;;;;9.30;4.90;;;9.10;99.90;;;;;;4163278;28;20068;-63
2022/12/10 04:12:19;;;;;;;12.77;5.77;;;9.20;99.90;;;;;;4164460;28;20025;-65
2022/12/10 04:16:40;;;;;;;9.63;4.57;;;9.20;99.90;;;;;;4164759;28;20037;-65
2022/12/10 04:18:41;;;;;;;12.27;5.27;;;9.20;99.90;;;;;;4162854;28;20452;-63
2022/12/10 04:27:41;;;;;;;6.63;3.80;;;9.30;99.90;;;;;;4157450;28;20041;-63
2022/12/10 04:29:42;;;;;;;10.37;5.10;;;9.40;99.90;;;;;;4164240;28;20481;-65
2022/12/10 04:31:43;;;;;;;9.50;5.67;;;9.50;99.90;;;;;;4162858;28;20037;-66
2022/12/10 04:33:45;;;;;;;11.63;4.50;;;9.50;99.90;;;;;;4163852;28;20041;-64
2022/12/10 04:35:46;;;;;;;13.43;5.37;;;9.40;99.90;;;;;;4163414;28;20543;-64
2022/12/10 04:37:47;;;;;;;10.43;4.10;;;9.40;99.90;;;;;;4163858;28;20053;-65
2022/12/10 04:39:50;;;;;;;7.33;4.30;;;9.40;99.90;;;;;;4162903;28;20052;-67
2022/12/10 04:41:51;;;;;;;10.60;4.93;;;9.30;99.90;;;;;;4151410;28;20030;-70
2022/12/10 04:43:53;;;;;;;8.50;4.50;;;9.30;99.90;;;;;;4146620;28;20037;-63
2022/12/10 04:45:56;;;;;;;13.87;4.93;;;9.30;99.90;;;;;;4147060;28;20029;-69
2022/12/10 04:47:57;;;;;;;15.47;5.27;;;9.30;99.90;;;;;;4146961;28;20401;-66
2022/12/10 04:49:58;;;;;;;11.27;5.30;;;9.20;99.90;;;;;;4146726;28;20087;-65
2022/12/10 04:51:59;;;;;;;10.27;5.30;;;9.20;99.90;;;;;;4146989;28;20305;-66
2022/12/10 04:54:01;;;;;;;9.70;4.87;;;9.10;99.90;;;;;;4155945;28;20045;-68
2022/12/10 04:56:04;;;;;;;9.77;5.27;;;9.00;99.90;;;;;;4153556;28;20131;-67
2022/12/10 04:58:05;;;;;;;8.80;5.03;;;9.00;99.90;;;;;;4161497;28;20426;-64
2022/12/10 05:00:07;;;;;;;9.53;5.03;;;9.00;99.90;;;;;;4163525;28;20037;-67
2022/12/10 05:02:09;;;;;;;11.90;6.17;;;9.00;99.90;;;;;;4162334;28;20034;-65
2022/12/10 05:04:13;;;;;;;9.23;5.93;;;8.90;99.90;;;;;;4163460;28;20060;-64
2022/12/10 05:06:16;;;;;;;11.17;6.37;;;8.90;99.90;;;;;;4162052;28;20050;-62
2022/12/10 05:08:18;;;;;;;9.63;5.07;;;8.70;99.90;;;;;;4156146;28;20050;-68
2022/12/10 05:10:19;;;;;;;10.90;5.90;;;8.70;99.90;;;;;;4146034;28;20038;-67
2022/12/10 05:12:20;;;;;;;12.47;6.20;;;8.60;99.90;;;;;;4147126;28;20083;-67
2022/12/10 05:14:21;;;;;;;10.50;6.37;;;8.50;99.90;;;;;;4148406;28;20049;-62
2022/12/10 05:16:24;;;;;;;12.73;6.80;;;8.40;99.90;;;;;;4162092;28;20095;-63
2022/12/10 05:18:25;;;;;;;18.13;6.63;;;8.30;99.90;;;;;;4162467;28;20977;-62
2022/12/10 05:20:26;;;;;;;11.73;7.10;;;8.30;99.90;;;;;;4162744;28;20581;-62
2022/12/10 05:24:47;;;;;;;16.80;6.80;;;8.20;99.90;;;;;;4146514;28;20034;-68
2022/12/10 05:26:50;;;;;;;14.20;7.33;;;8.10;99.90;;;;;;4145877;28;20302;-63
2022/12/10 05:28:54;;;;;;;12.20;7.80;;;8.10;99.90;;;;;;4145371;28;20120;-65
2022/12/10 05:30:56;;;;;;;11.63;7.20;;;8.10;99.90;;;;;;4146619;28;20026;-64
2022/12/10 05:32:57;;;;;;;17.27;7.90;;;8.10;99.90;;;;;;4145570;28;20049;-64
2022/12/10 05:34:58;;;;;;;16.87;7.57;;;8.10;99.90;;;;;;4146879;28;20037;-63
2022/12/10 05:36:59;;;;;;;12.93;8.00;;;8.10;99.90;;;;;;4146619;28;20037;-64
2022/12/10 05:39:00;;;;;;;18.43;7.60;;;8.10;99.90;;;;;;4151019;28;20069;-64
2022/12/10 05:41:06;;;;;;;11.37;6.90;;;8.10;99.90;;;;;;4145808;28;20076;-64
2022/12/10 05:43:07;;;;;;;11.00;6.97;;;8.10;99.90;;;;;;4145489;28;20588;-65
2022/12/10 05:45:08;;;;;;;16.57;8.67;;;8.10;99.90;;;;;;4135908;28;20033;-67
2022/12/10 05:47:09;;;;;;;11.20;6.47;;;8.10;99.90;;;;;;4146133;28;20458;-66
2022/12/10 05:49:11;;;;;;;15.43;7.53;;;8.20;99.90;;;;;;4145127;28;20026;-68
2022/12/10 05:51:14;;;;;;;14.47;6.10;;;8.20;99.90;;;;;;4146212;28;20115;-63
2022/12/10 05:53:17;;;;;;;17.00;7.70;;;8.20;99.90;;;;;;4145274;28;20049;-63
2022/12/10 05:55:18;;;;;;;15.60;7.33;;;8.30;99.90;;;;;;4146079;28;20017;-63
2022/12/10 05:57:19;;;;;;;13.93;7.17;;;8.40;99.90;;;;;;4145544;28;20410;-63
2022/12/10 05:59:20;;;;;;;12.97;6.93;;;8.50;99.90;;;;;;4145772;28;20077;-64
2022/12/10 06:01:24;;;;;;;15.03;7.27;;;8.50;99.90;;;;;;4145875;28;20018;-68
2022/12/10 06:03:27;;;;;;;12.63;6.70;;;8.60;99.90;;;;;;4144822;28;20065;-61
2022/12/10 06:05:28;;;;;;;9.70;6.57;;;8.60;99.90;;;;;;4146048;28;20096;-61
2022/12/10 06:07:30;;;;;;;11.20;6.30;;;8.60;99.90;;;;;;4145116;28;20064;-66
2022/12/10 06:09:31;;;;;;;9.60;6.67;;;8.60;99.90;;;;;;4145869;28;20410;-67
2022/12/10 06:11:32;;;;;;;14.93;7.37;;;8.60;99.90;;;;;;4145187;28;20029;-62
2022/12/10 06:13:34;;;;;;;11.97;6.83;;;8.50;99.90;;;;;;4146176;28;20041;-66
2022/12/10 06:15:39;;;;;;;14.50;7.13;;;8.50;99.90;;;;;;4145133;28;20076;-66
2022/12/10 06:17:40;;;;;;;15.23;7.03;;;8.50;99.90;;;;;;4145579;28;20084;-66
2022/12/10 06:19:41;;;;;;;14.57;7.47;;;8.40;99.90;;;;;;4144670;28;20038;-63
2022/12/10 06:21:42;;;;;;;15.57;7.53;;;8.40;99.90;;;;;;4145355;28;20050;-60
2022/12/10 06:23:44;;;;;;;13.37;7.80;;;8.50;99.90;;;;;;4144468;28;20474;-66
2022/12/10 06:25:45;;;;;;;12.73;7.23;;;8.50;99.90;;;;;;4145130;28;20042;-70
2022/12/10 06:27:46;;;;;;;12.83;6.80;;;8.50;99.90;;;;;;4142805;28;20433;-64
2022/12/10 06:29:47;;;;;;;13.93;6.63;;;8.50;99.90;;;;;;4145512;28;20034;-65
2022/12/10 06:31:48;;;;;;;14.83;8.20;;;8.60;99.90;;;;;;4148237;28;20593;-66
2022/12/10 06:33:51;;;;;;;14.10;8.10;;;8.70;99.90;;;;;;4161160;28;20547;-68
2022/12/10 06:35:52;;;;;;;11.83;7.00;;;8.70;99.90;;;;;;4161479;28;20485;-63
2022/12/10 06:37:53;;;;;;;8.63;5.87;;;8.70;99.90;;;;;;4160266;28;20049;-67
2022/12/10 06:39:54;;;;;;;9.37;6.50;;;8.80;99.90;;;;;;4161670;28;20030;-68
2022/12/10 06:41:55;;;;;;;11.63;6.53;;;8.90;99.90;;;;;;4159941;28;20091;-72
2022/12/10 06:43:59;;;;;;;13.67;5.97;;;9.00;99.90;;;;;;4159468;28;20029;-72
2022/12/10 06:46:06;;;;;;;11.13;6.83;;;9.00;99.90;;;;;;4146052;28;20062;-67
2022/12/10 06:48:07;;;;;;;16.23;7.80;;;9.00;99.90;;;;;;4157342;28;20033;-71
2022/12/10 06:50:09;;;;;;;13.70;7.30;;;9.10;99.90;;;;;;4156794;28;20046;-69
2022/12/10 06:52:10;;;;;;;15.20;7.83;;;9.10;99.90;;;;;;4144671;28;20097;-70
2022/12/10 06:54:11;;;;;;;15.73;8.13;;;9.00;99.90;;;;;;4144364;28;20504;-63
2022/12/10 06:56:16;;;;;;;12.60;7.80;;;9.00;99.90;;;;;;4155152;28;20099;-63
2022/12/10 06:58:17;;;;;;;12.90;7.63;;;8.90;99.90;;;;;;4151781;28;20123;-63
2022/12/10 07:00:18;;;;;;;15.47;9.33;;;8.80;99.90;;;;;;4161423;28;20736;-67
2022/12/10 07:02:19;;;;;;;19.07;9.37;;;8.80;99.90;;;;;;4160561;28;20174;-65
2022/12/10 07:04:21;;;;;;;12.20;8.13;;;8.70;99.90;;;;;;4160969;28;20493;-64
2022/12/10 07:06:23;;;;;;;15.03;6.53;;;8.70;99.90;;;;;;4160872;28;20315;-69
2022/12/10 07:08:24;;;;;;;17.20;8.87;;;8.70;99.90;;;;;;4143828;28;20080;-70
2022/12/10 07:10:25;;;;;;;16.00;8.70;;;8.80;99.90;;;;;;4146470;28;20119;-64
2022/12/10 07:12:26;;;;;;;17.07;9.27;;;8.80;99.90;;;;;;4160973;28;20045;-63
2022/12/10 07:14:28;;;;;;;17.57;9.70;;;8.80;99.90;;;;;;4161582;28;20413;-71
2022/12/10 07:16:31;;;;;;;21.67;9.37;;;8.80;99.90;;;;;;4160471;28;20017;-71
2022/12/10 07:18:32;;;;;;;20.90;9.83;;;8.80;99.90;;;;;;4149186;28;20507;-60
2022/12/10 07:20:33;;;;;;;18.93;9.10;;;8.90;99.90;;;;;;4155819;28;20095;-68
2022/12/10 07:22:34;;;;;;;14.97;8.70;;;9.00;99.90;;;;;;4161258;28;20469;-65
2022/12/10 07:24:35;;;;;;;15.13;8.83;;;9.00;99.90;;;;;;4148303;28;20041;-65
2022/12/10 07:26:39;;;;;;;12.03;7.30;;;9.00;99.90;;;;;;4144985;28;20060;-64
2022/12/10 07:28:40;;;;;;;18.50;8.73;;;9.00;99.90;;;;;;4143453;28;20100;-68
2022/12/10 07:30:41;;;;;;;14.03;8.93;;;9.10;99.90;;;;;;4145051;28;20034;-70
2022/12/10 07:32:43;;;;;;;14.27;8.47;;;9.20;99.90;;;;;;4143700;28;20091;-63
2022/12/10 07:34:44;;;;;;;13.50;8.77;;;9.20;99.90;;;;;;4144263;28;20715;-61
2022/12/10 07:36:45;;;;;;;15.57;10.50;;;9.20;99.90;;;;;;4144724;28;20034;-68
2022/12/10 07:38:46;;;;;;;15.03;9.13;;;9.20;99.90;;;;;;4143674;28;20108;-68
2022/12/10 07:40:47;;;;;;;25.33;13.30;;;9.20;99.90;;;;;;4150145;28;20021;-62
2022/12/10 07:42:48;;;;;;;18.87;9.37;;;9.20;99.90;;;;;;4163379;28;20041;-70
2022/12/10 07:44:49;;;;;;;17.87;9.30;;;9.30;99.90;;;;;;4149556;28;20073;-70
2022/12/10 07:46:52;;;;;;;17.83;8.87;;;9.40;99.90;;;;;;4147198;28;20498;-71
2022/12/10 07:48:55;;;;;;;17.60;10.07;;;9.40;99.90;;;;;;4148022;28;20701;-71
2022/12/10 07:50:57;;;;;;;20.77;10.50;;;9.40;99.90;;;;;;4146598;28;20053;-64
2022/12/10 07:52:58;;;;;;;15.77;8.60;;;9.50;99.90;;;;;;4147705;28;20069;-65
2022/12/10 07:55:00;;;;;;;18.13;10.23;;;9.50;99.90;;;;;;4149561;28;20103;-65
2022/12/10 07:57:01;;;;;;;12.07;7.67;;;9.60;99.90;;;;;;4164383;28;20087;-62
2022/12/10 07:59:02;;;;;;;18.17;11.57;;;9.60;99.90;;;;;;4161456;28;20049;-68
2022/12/10 08:01:08;;;;;;;18.97;8.63;;;9.60;99.90;;;;;;4149195;28;20096;-61
2022/12/10 08:03:09;;;;;;;15.27;8.00;;;9.60;99.90;;;;;;4162600;28;20022;-63
2022/12/10 08:05:10;;;;;;;19.20;8.67;;;9.60;99.90;;;;;;4164326;28;20470;-63
2022/12/10 08:07:11;;;;;;;17.43;10.03;;;9.60;99.90;;;;;;4147674;28;20364;-62
2022/12/10 08:09:13;;;;;;;15.20;9.37;;;9.50;99.90;;;;;;4147631;28;20437;-64
2022/12/10 08:11:15;;;;;;;16.30;9.23;;;9.50;99.90;;;;;;4147362;28;20054;-63
2022/12/10 08:13:16;;;;;;;18.23;9.47;;;9.50;99.90;;;;;;4147131;28;20061;-66
2022/12/10 08:15:17;;;;;;;16.47;8.90;;;9.50;99.90;;;;;;4155740;28;20041;-66
2022/12/10 08:17:18;;;;;;;19.73;10.63;;;9.50;99.90;;;;;;4163202;28;20470;-72
2022/12/10 08:19:19;;;;;;;20.60;11.07;;;9.50;99.90;;;;;;4163956;28;20055;-70
2022/12/10 08:21:24;;;;;;;23.47;12.70;;;9.50;99.90;;;;;;4162365;28;20115;-69
2022/12/10 08:23:26;;;;;;;34.83;19.33;;;9.50;99.90;;;;;;4163353;28;20093;-65
2022/12/10 08:25:27;;;;;;;34.77;16.43;;;9.50;99.90;;;;;;4146168;28;20065;-65
2022/12/10 08:27:28;;;;;;;28.57;14.13;;;9.50;99.90;;;;;;4148086;28;20037;-63
2022/12/10 08:29:29;;;;;;;30.47;17.00;;;9.40;99.90;;;;;;4158569;28;20115;-61
2022/12/10 08:31:31;;;;;;;29.73;17.60;;;9.50;99.90;;;;;;4147194;28;20037;-70
2022/12/10 08:33:36;;;;;;;35.40;17.33;;;9.50;99.90;;;;;;4146732;28;20041;-64
2022/12/10 08:35:37;;;;;;;26.23;16.50;;;9.50;99.90;;;;;;4148186;28;20076;-64
2022/12/10 08:37:41;;;;;;;29.20;14.77;;;9.50;99.90;;;;;;4145606;28;20490;-63
2022/12/10 08:39:42;;;;;;;33.43;15.53;;;9.50;99.90;;;;;;4147095;28;20076;-66
2022/12/10 08:41:44;;;;;;;27.67;14.13;;;9.60;99.90;;;;;;4150440;28;20029;-68
2022/12/10 08:43:46;;;;;;;18.63;12.83;;;9.70;99.90;;;;;;4160081;28;20034;-68
2022/12/10 08:45:47;;;;;;;196.20;87.73;;;9.80;99.90;;;;;;4145390;28;20042;-58
2022/12/10 08:47:48;;;;;;;47.70;23.20;;;9.80;99.90;;;;;;4145137;28;20477;-58
2022/12/10 08:49:49;;;;;;;39.83;19.37;;;9.90;99.90;;;;;;4158399;28;20037;-62
2022/12/10 08:51:51;;;;;;;38.73;18.80;;;10.00;99.90;;;;;;4130063;28;20475;-63
2022/12/10 08:53:52;;;;;;;34.03;18.83;;;10.10;99.90;;;;;;4131022;28;20058;-60
2022/12/10 08:55:54;;;;;;;41.00;23.27;;;10.20;99.90;;;;;;4145150;28;20379;-61
2022/12/10 08:57:56;;;;;;;58.63;32.60;;;10.20;99.90;;;;;;4146959;28;20072;-60
2022/12/10 08:59:58;;;;;;;39.70;20.53;;;10.30;99.90;;;;;;4145053;28;20143;-62
2022/12/10 09:01:59;;;;;;;43.03;21.73;;;10.50;99.90;;;;;;4146916;28;20092;-60
2022/12/10 09:04:01;;;;;;;39.87;21.80;;;10.60;99.90;;;;;;4145894;28;20478;-60
2022/12/10 09:06:08;;;;;;;52.57;27.83;;;10.80;99.90;;;;;;4147311;28;20042;-60
2022/12/10 09:08:09;;;;;;;53.07;31.27;;;10.90;99.90;;;;;;4150884;28;20091;-60
2022/12/10 09:10:11;;;;;;;39.40;21.07;;;11.00;99.90;;;;;;4149860;28;20038;-64
2022/12/10 09:12:12;;;;;;;46.70;20.40;;;11.10;99.90;;;;;;4149334;28;20049;-60
2022/12/10 09:14:14;;;;;;;33.07;20.07;;;11.10;99.90;;;;;;4147332;28;20448;-60
2022/12/10 09:16:15;;;;;;;30.93;17.57;;;11.10;99.90;;;;;;4154091;28;20520;-61
2022/12/10 09:18:17;;;;;;;27.07;15.80;;;11.20;99.90;;;;;;4154825;28;20091;-63
2022/12/10 09:20:18;;;;;;;21.83;13.93;;;11.30;99.90;;;;;;4154518;28;20087;-62
2022/12/10 09:22:19;;;;;;;20.13;11.27;;;11.40;99.90;;;;;;4146316;28;20437;-62
2022/12/10 09:24:20;;;;;;;20.90;11.63;;;11.50;99.90;;;;;;4150618;28;20034;-58
2022/12/10 09:26:21;;;;;;;22.53;13.17;;;11.40;99.90;;;;;;4147157;28;20437;-63
2022/12/10 09:28:22;;;;;;;21.20;12.53;;;11.30;99.90;;;;;;4145001;28;20045;-61
2022/12/10 09:30:24;;;;;;;25.23;14.30;;;11.30;99.90;;;;;;4147258;28;20042;-62
2022/12/10 09:32:25;;;;;;;21.70;13.20;;;11.20;99.90;;;;;;4148778;28;20026;-60
2022/12/10 09:34:26;;;;;;;25.03;13.10;;;11.20;99.90;;;;;;4144430;28;20571;-61
2022/12/10 09:36:27;;;;;;;20.90;12.07;;;11.30;99.90;;;;;;4151041;28;20045;-61
2022/12/10 09:38:29;;;;;;;25.17;13.03;;;11.30;99.90;;;;;;4152249;28;20041;-62
2022/12/10 09:40:59;;;;;;;17.77;11.37;;;11.40;99.90;;;;;;4156433;28;20493;-63
2022/12/10 09:43:19;;;;;;;20.30;12.10;;;11.50;99.90;;;;;;4139203;28;20079;-63
2022/12/10 09:45:44;;;;;;;20.17;12.85;;;11.60;99.90;;;;;;4154155;28;20785;-64
2022/12/10 09:47:54;;;;;;;22.17;12.87;;;11.80;99.90;;;;;;4152486;28;20414;-63
2022/12/10 09:50:19;;;;;;;22.47;13.97;;;12.00;99.90;;;;;;4151417;28;20426;-66
2022/12/10 09:52:26;;;;;;;27.77;15.57;;;12.00;99.90;;;;;;4149766;28;20085;-63
2022/12/10 09:54:33;;;;;;;20.87;12.97;;;12.10;99.90;;;;;;4151150;28;20083;-62
2022/12/10 09:56:39;;;;;;;16.57;11.27;;;12.10;99.90;;;;;;4142417;28;20100;-62
2022/12/10 09:58:40;;;;;;;24.37;13.07;;;12.10;99.90;;;;;;4152830;28;20092;-61
2022/12/10 10:00:44;;;;;;;12.57;7.93;;;12.10;99.90;;;;;;4153232;28;20049;-62
2022/12/10 10:02:46;;;;;;;15.10;8.17;;;12.10;99.90;;;;;;4152169;28;20049;-61
2022/12/10 10:04:49;;;;;;;13.60;7.60;;;12.10;99.90;;;;;;4152157;28;20026;-62
2022/12/10 10:06:51;;;;;;;13.40;8.03;;;12.10;99.90;;;;;;4146947;28;20096;-64
2022/12/10 10:08:56;;;;;;;14.57;9.37;;;12.20;99.90;;;;;;4149702;28;20092;-62
2022/12/10 10:10:59;;;;;;;13.87;9.23;;;12.20;99.90;;;;;;4160463;28;20103;-63
2022/12/10 10:13:14;;;;;;;15.10;8.03;;;12.20;99.90;;;;;;4160161;28;20025;-62
2022/12/10 10:15:19;;;;;;;12.23;8.93;;;12.30;99.90;;;;;;4161873;28;20045;-63
2022/12/10 10:17:33;;;;;;;13.40;8.07;;;12.30;99.90;;;;;;4159070;28;20075;-63
2022/12/10 10:19:37;;;;;;;13.63;8.80;;;12.30;99.90;;;;;;4159885;28;20108;-64
2022/12/10 10:21:41;;;;;;;15.63;9.33;;;12.30;99.90;;;;;;4159102;28;20030;-62
2022/12/10 10:23:44;;;;;;;17.97;8.93;;;12.40;99.90;;;;;;4145528;28;20038;-69
2022/12/10 10:25:46;;;;;;;16.07;9.70;;;12.40;99.90;;;;;;4145175;28;20088;-64
2022/12/10 10:27:47;;;;;;;15.20;9.80;;;12.40;99.90;;;;;;4150372;28;20095;-63
2022/12/10 10:29:51;;;;;;;16.50;10.60;;;12.40;99.90;;;;;;4154070;28;20026;-63
2022/12/10 10:32:11;;;;;;;16.07;10.50;;;12.50;99.90;;;;;;4161631;28;20060;-62
2022/12/10 10:34:21;;;;;;;15.77;10.02;;;12.40;99.90;;;;;;4160774;28;20413;-62
2022/12/10 10:36:28;;;;;;;16.05;10.20;;;12.40;99.90;;;;;;4160949;28;20052;-62
2022/12/10 10:38:30;;;;;;;18.37;11.07;;;12.40;99.90;;;;;;4160838;28;20445;-61
2022/12/10 10:40:42;;;;;;;19.57;11.57;;;12.30;99.90;;;;;;4160846;28;20041;-61
2022/12/10 10:42:45;;;;;;;14.43;9.17;;;12.30;99.90;;;;;;4160206;28;20025;-62
2022/12/10 10:44:46;;;;;;;12.73;9.00;;;12.20;99.90;;;;;;4160814;28;20502;-62
2022/12/10 10:46:50;;;;;;;15.60;9.33;;;12.20;99.90;;;;;;4161631;28;20060;-63
2022/12/10 10:48:51;;;;;;;17.23;9.27;;;12.10;99.90;;;;;;4160683;28;20029;-63
2022/12/10 10:50:56;;;;;;;13.70;8.47;;;12.00;99.90;;;;;;4160992;28;20103;-62
2022/12/10 10:52:57;;;;;;;13.50;8.70;;;12.00;99.90;;;;;;4159726;28;20211;-62